Time;durP1;ratioP1;P1;durP2;ratioP2;P2;SDS_P1;SDS_P2;PMS_P1;PMS_P2;Temp;Humidity;BMP_temperature;BMP_pressure;BME280_temperature;BME280_humidity;BME280_pressure;Samples;Min_cycle;Max_cycle;Signal;HPM_P1;HPM_P2
2023/03/12 00:00:39;;;;;;;5.07;2.60;;;-0.10;99.90;;;;;;5053439;28;20123;-76
2023/03/12 00:03:05;;;;;;;5.00;2.25;;;-0.20;99.90;;;;;;5049319;28;20075;-76
2023/03/12 00:05:31;;;;;;;3.33;1.88;;;-0.20;99.90;;;;;;5033217;28;20041;-77
2023/03/12 00:07:58;;;;;;;5.10;2.97;;;-0.30;99.90;;;;;;5061825;28;20089;-77
2023/03/12 00:10:25;;;;;;;4.28;2.20;;;-0.40;99.90;;;;;;5052506;28;20378;-77
2023/03/12 00:12:51;;;;;;;4.80;2.17;;;0.30;99.90;;;;;;5066515;28;20045;-77
2023/03/12 00:15:17;;;;;;;3.80;2.10;;;0.30;99.90;;;;;;5070407;28;20119;-76
2023/03/12 00:17:43;;;;;;;4.13;2.50;;;-0.80;99.90;;;;;;5056309;28;20045;-76
2023/03/12 00:20:10;;;;;;;5.40;2.20;;;-0.80;99.90;;;;;;5033762;28;20390;-77
2023/03/12 00:22:36;;;;;;;6.60;2.72;;;-0.70;99.90;;;;;;5033232;28;20052;-77
2023/03/12 00:25:04;;;;;;;4.82;2.67;;;-0.60;99.90;;;;;;5051368;28;20045;-78
2023/03/12 00:27:30;;;;;;;5.70;3.10;;;-0.50;99.90;;;;;;5052536;28;20055;-78
2023/03/12 00:29:55;;;;;;;4.20;2.75;;;-0.20;99.90;;;;;;5052748;28;20056;-78
2023/03/12 00:32:21;;;;;;;5.38;2.90;;;-0.50;99.90;;;;;;5052784;28;20127;-78
2023/03/12 00:34:52;;;;;;;4.60;2.97;;;0.50;99.90;;;;;;5020976;28;20368;-80
2023/03/12 00:37:18;;;;;;;4.93;2.90;;;-0.30;99.90;;;;;;5050879;28;20109;-77
2023/03/12 00:39:44;;;;;;;5.53;3.20;;;-0.30;99.90;;;;;;5054755;28;20037;-76
2023/03/12 00:42:10;;;;;;;4.63;3.03;;;-0.40;99.90;;;;;;5041848;28;20524;-76
2023/03/12 00:44:35;;;;;;;6.10;3.03;;;-0.30;99.90;;;;;;5068883;28;20456;-77
2023/03/12 00:47:01;;;;;;;5.00;3.17;;;-0.30;99.90;;;;;;5029081;28;20055;-79
2023/03/12 00:49:27;;;;;;;5.25;3.17;;;-0.30;99.90;;;;;;5024650;28;20536;-77
2023/03/12 00:51:52;;;;;;;5.55;3.20;;;-0.30;99.90;;;;;;5032693;28;20485;-79
2023/03/12 00:54:19;;;;;;;5.95;3.00;;;-0.30;99.90;;;;;;5032939;28;20406;-78
2023/03/12 00:56:45;;;;;;;5.40;3.22;;;-0.30;99.90;;;;;;5051194;28;20457;-79
2023/03/12 00:59:12;;;;;;;5.65;2.58;;;-0.30;99.90;;;;;;5065789;28;20045;-84
2023/03/12 01:01:38;;;;;;;4.00;2.60;;;-0.30;99.90;;;;;;5061735;28;20036;-76
2023/03/12 01:04:04;;;;;;;4.13;2.53;;;0.00;99.90;;;;;;5035860;28;20378;-79
2023/03/12 01:06:29;;;;;;;4.78;2.53;;;0.40;99.90;;;;;;5070998;28;20119;-78
2023/03/12 01:08:55;;;;;;;4.78;3.25;;;-0.30;99.90;;;;;;5038021;28;20582;-76
2023/03/12 01:11:22;;;;;;;4.07;2.30;;;-0.20;99.90;;;;;;5069985;28;20048;-77
2023/03/12 01:13:47;;;;;;;6.25;2.72;;;-0.20;99.90;;;;;;5070820;28;20124;-76
2023/03/12 01:16:14;;;;;;;6.97;2.60;;;-0.10;99.90;;;;;;5044005;28;20136;-77
2023/03/12 01:18:39;;;;;;;6.68;3.10;;;-0.10;99.90;;;;;;5063200;28;20100;-77
2023/03/12 01:21:05;;;;;;;5.05;2.60;;;0.00;99.90;;;;;;5070492;28;20698;-77
2023/03/12 01:23:31;;;;;;;7.30;2.70;;;0.30;99.90;;;;;;5070299;28;20048;-76
2023/03/12 01:25:58;;;;;;;4.97;2.55;;;0.70;99.90;;;;;;5043226;28;20048;-77
2023/03/12 01:28:24;;;;;;;3.47;2.40;;;0.10;99.90;;;;;;5050247;28;20071;-81
2023/03/12 01:30:50;;;;;;;5.00;2.65;;;0.10;99.90;;;;;;5032684;28;20045;-77
2023/03/12 01:33:17;;;;;;;4.95;2.60;;;0.20;99.90;;;;;;5050536;28;20044;-79
2023/03/12 01:35:44;;;;;;;4.35;2.42;;;0.20;99.90;;;;;;5050336;28;20051;-78
2023/03/12 01:38:14;;;;;;;4.35;2.67;;;0.20;99.90;;;;;;5056615;28;20084;-78
2023/03/12 01:40:42;;;;;;;3.90;2.55;;;0.10;99.90;;;;;;5012159;28;20049;-82
2023/03/12 01:43:36;;;;;;;5.10;3.00;;;0.20;99.90;;;;;;5052279;28;20053;-80
2023/03/12 01:46:20;;;;;;;4.95;3.03;;;0.60;99.90;;;;;;5041921;28;20417;-78
2023/03/12 01:48:57;;;;;;;5.20;2.95;;;0.80;99.90;;;;;;5036204;28;20626;-78
2023/03/12 01:51:28;;;;;;;8.32;2.90;;;0.00;99.90;;;;;;5074023;28;20092;-78
2023/03/12 01:53:58;;;;;;;5.50;3.28;;;0.00;99.90;;;;;;5073853;28;20045;-78
2023/03/12 01:56:29;;;;;;;5.20;2.47;;;0.00;99.90;;;;;;5043364;28;20046;-78
2023/03/12 01:58:59;;;;;;;4.97;2.95;;;0.20;99.90;;;;;;5059455;28;20048;-77
2023/03/12 02:01:26;;;;;;;6.43;2.88;;;0.10;99.90;;;;;;5063588;28;20053;-79
2023/03/12 02:03:54;;;;;;;4.95;2.88;;;0.10;99.90;;;;;;5035103;28;20052;-79
2023/03/12 02:06:48;;;;;;;4.40;2.83;;;0.20;99.90;;;;;;5031753;28;20416;-78
2023/03/12 02:09:14;;;;;;;4.72;2.35;;;0.20;99.90;;;;;;5042801;28;20205;-77
2023/03/12 02:11:40;;;;;;;3.58;2.20;;;0.10;99.90;;;;;;5064438;28;20517;-77
2023/03/12 02:14:05;;;;;;;4.95;2.17;;;0.10;99.90;;;;;;5053086;28;20187;-77
2023/03/12 02:16:31;;;;;;;5.32;2.17;;;0.00;99.90;;;;;;5053237;28;20115;-77
2023/03/12 02:19:00;;;;;;;4.22;2.10;;;0.10;99.90;;;;;;5052376;28;20049;-77
2023/03/12 02:21:29;;;;;;;4.28;2.40;;;0.20;99.90;;;;;;5053185;28;20057;-78
2023/03/12 02:24:13;;;;;;;3.67;2.20;;;0.20;99.90;;;;;;5068967;28;20049;-78
2023/03/12 02:26:39;;;;;;;4.65;2.35;;;0.30;99.90;;;;;;5049998;28;20036;-78
2023/03/12 02:29:07;;;;;;;4.10;2.45;;;0.30;99.90;;;;;;5068273;28;20401;-79
2023/03/12 02:31:41;;;;;;;3.72;2.53;;;0.30;99.90;;;;;;5053021;28;20041;-78
2023/03/12 02:34:08;;;;;;;4.63;2.75;;;0.30;99.90;;;;;;5065180;28;20112;-78
2023/03/12 02:36:34;;;;;;;4.78;2.75;;;0.90;99.90;;;;;;5073184;28;20409;-81
2023/03/12 02:39:00;;;;;;;6.43;3.00;;;0.40;99.90;;;;;;5039038;28;20059;-79
2023/03/12 02:41:30;;;;;;;4.65;2.42;;;0.50;99.90;;;;;;5067616;28;20053;-78
2023/03/12 02:43:59;;;;;;;4.82;2.70;;;0.50;99.90;;;;;;5053127;28;20068;-81
2023/03/12 02:46:25;;;;;;;5.00;2.90;;;1.00;99.90;;;;;;5034162;28;20044;-77
2023/03/12 02:48:52;;;;;;;5.20;2.58;;;1.50;99.90;;;;;;5054756;28;20106;-77
2023/03/12 02:51:18;;;;;;;4.93;2.72;;;1.80;99.90;;;;;;5032077;28;20053;-80
2023/03/12 02:53:44;;;;;;;5.47;2.72;;;1.40;99.90;;;;;;5052741;28;20477;-78
2023/03/12 02:56:09;;;;;;;4.50;2.90;;;0.60;99.90;;;;;;5052107;28;20045;-77
2023/03/12 02:58:36;;;;;;;5.93;2.72;;;0.70;99.90;;;;;;5053029;28;20338;-76
2023/03/12 03:01:02;;;;;;;4.90;3.08;;;0.60;99.90;;;;;;5052344;28;20045;-77
2023/03/12 03:03:27;;;;;;;5.15;2.88;;;0.70;99.90;;;;;;5034528;28;20053;-76
2023/03/12 03:05:53;;;;;;;4.43;2.90;;;0.70;99.90;;;;;;5052145;28;20041;-76
2023/03/12 03:08:19;;;;;;;4.63;2.67;;;0.70;99.90;;;;;;5034549;28;20060;-82
2023/03/12 03:10:45;;;;;;;4.55;3.38;;;0.70;99.90;;;;;;5051524;28;20552;-77
2023/03/12 03:13:11;;;;;;;5.80;3.00;;;0.70;99.90;;;;;;5034793;28;20053;-76
2023/03/12 03:15:37;;;;;;;5.18;3.25;;;0.70;99.90;;;;;;5052397;28;20045;-76
2023/03/12 03:18:04;;;;;;;6.50;3.55;;;1.80;99.90;;;;;;5034605;28;20119;-77
2023/03/12 03:20:31;;;;;;;4.95;3.67;;;0.70;99.90;;;;;;5051900;28;20566;-77
2023/03/12 03:22:57;;;;;;;14.38;4.20;;;0.80;99.90;;;;;;5052007;28;20110;-76
2023/03/12 03:25:23;;;;;;;5.70;3.42;;;1.20;99.90;;;;;;5029539;28;20153;-78
2023/03/12 03:27:48;;;;;;;5.97;3.30;;;0.90;99.90;;;;;;5026385;28;20136;-76
2023/03/12 03:30:15;;;;;;;5.72;3.40;;;0.70;99.90;;;;;;5051911;28;20077;-76
2023/03/12 03:32:41;;;;;;;4.55;3.05;;;0.80;99.90;;;;;;5034223;28;20083;-77
2023/03/12 03:35:07;;;;;;;4.72;2.70;;;0.80;99.90;;;;;;5054143;28;20452;-76
2023/03/12 03:37:33;;;;;;;5.18;3.45;;;0.80;99.90;;;;;;5040704;28;20169;-77
2023/03/12 03:39:59;;;;;;;4.18;3.05;;;0.80;99.90;;;;;;5072622;28;20064;-76
2023/03/12 03:42:24;;;;;;;4.45;2.70;;;0.70;99.90;;;;;;5038751;28;20498;-78
2023/03/12 03:44:50;;;;;;;6.00;3.15;;;0.80;99.90;;;;;;5037083;28;20060;-76
2023/03/12 03:47:16;;;;;;;4.45;3.03;;;0.70;99.90;;;;;;5053986;28;20049;-76
2023/03/12 03:49:41;;;;;;;4.13;2.88;;;1.30;99.90;;;;;;5030900;28;20457;-77
2023/03/12 03:52:07;;;;;;;4.65;2.88;;;0.80;99.90;;;;;;5063459;28;20402;-76
2023/03/12 03:54:33;;;;;;;5.05;3.25;;;0.80;99.90;;;;;;5013916;28;20398;-77
2023/03/12 03:56:59;;;;;;;5.10;3.40;;;0.80;99.90;;;;;;5014116;28;20057;-77
2023/03/12 03:59:25;;;;;;;5.47;2.97;;;0.80;99.90;;;;;;5030161;28;20049;-76
2023/03/12 04:01:51;;;;;;;6.57;3.38;;;0.80;99.90;;;;;;5031431;28;20054;-77
2023/03/12 04:04:17;;;;;;;6.00;3.65;;;0.80;99.90;;;;;;5031371;28;20061;-77
2023/03/12 04:06:43;;;;;;;4.40;2.97;;;0.80;99.90;;;;;;5037014;28;20135;-78
2023/03/12 04:09:08;;;;;;;4.18;3.17;;;0.80;99.90;;;;;;5051350;28;20049;-77
2023/03/12 04:11:34;;;;;;;5.50;3.38;;;1.50;99.90;;;;;;5065967;28;20067;-76
2023/03/12 04:14:00;;;;;;;4.60;3.05;;;0.80;99.90;;;;;;5033659;28;20051;-76
2023/03/12 04:16:26;;;;;;;7.80;3.47;;;0.80;99.90;;;;;;5050849;28;20048;-76
2023/03/12 04:18:51;;;;;;;6.68;3.90;;;0.80;99.90;;;;;;5066509;28;20040;-76
2023/03/12 04:21:17;;;;;;;6.53;3.72;;;0.90;99.90;;;;;;5030060;28;20053;-76
2023/03/12 04:23:43;;;;;;;6.38;3.85;;;0.80;99.90;;;;;;5030102;28;20047;-77
2023/03/12 04:26:09;;;;;;;5.57;3.65;;;0.80;99.90;;;;;;5039376;28;20529;-77
2023/03/12 04:28:35;;;;;;;5.05;3.40;;;0.80;99.90;;;;;;5058640;28;20056;-78
2023/03/12 04:31:03;;;;;;;8.88;4.20;;;0.80;99.90;;;;;;5030647;28;20076;-76
2023/03/12 04:33:32;;;;;;;6.32;3.85;;;0.80;99.90;;;;;;5028942;28;20049;-78
2023/03/12 04:35:58;;;;;;;7.20;3.60;;;1.60;99.90;;;;;;5057306;28;20057;-80
2023/03/12 04:38:25;;;;;;;8.75;3.83;;;0.80;99.90;;;;;;5013971;28;20050;-77
2023/03/12 04:41:02;;;;;;;5.55;3.53;;;0.80;99.90;;;;;;5053675;28;20119;-76
2023/03/12 04:43:29;;;;;;;4.47;3.30;;;1.00;99.90;;;;;;5071054;28;20064;-76
2023/03/12 04:45:56;;;;;;;7.82;3.83;;;0.80;99.90;;;;;;5049054;28;20044;-76
2023/03/12 04:48:22;;;;;;;6.22;3.40;;;0.80;99.90;;;;;;5038787;28;20079;-76
2023/03/12 04:50:48;;;;;;;5.63;3.65;;;1.10;99.90;;;;;;5033039;28;20438;-76
2023/03/12 04:53:14;;;;;;;5.78;4.25;;;0.90;99.90;;;;;;5049627;28;20517;-78
2023/03/12 04:55:40;;;;;;;6.35;3.58;;;0.80;99.90;;;;;;5032925;28;20053;-76
2023/03/12 04:58:05;;;;;;;4.75;3.15;;;1.30;99.90;;;;;;5005039;28;20543;-76
2023/03/12 05:00:31;;;;;;;6.57;4.03;;;0.80;99.90;;;;;;5029330;28;20045;-76
2023/03/12 05:02:57;;;;;;;6.18;4.20;;;1.60;99.90;;;;;;5029645;28;20053;-76
2023/03/12 05:05:22;;;;;;;6.60;4.15;;;0.90;99.90;;;;;;5015957;28;20041;-78
2023/03/12 05:07:48;;;;;;;5.57;4.35;;;0.80;99.90;;;;;;5032985;28;20044;-76
2023/03/12 05:10:14;;;;;;;6.82;3.85;;;0.90;99.90;;;;;;5050578;28;20110;-76
2023/03/12 05:12:39;;;;;;;6.63;3.95;;;0.90;99.90;;;;;;5032964;28;20126;-76
2023/03/12 05:15:06;;;;;;;4.70;3.70;;;1.90;99.90;;;;;;5050612;28;20056;-76
2023/03/12 05:17:31;;;;;;;6.55;4.25;;;0.90;99.90;;;;;;5050453;28;20049;-76
2023/03/12 05:19:58;;;;;;;6.13;4.10;;;0.90;99.90;;;;;;5032793;28;20057;-76
2023/03/12 05:22:23;;;;;;;7.35;4.22;;;1.80;99.90;;;;;;5050732;28;20057;-77
2023/03/12 05:24:49;;;;;;;7.43;3.92;;;1.00;99.90;;;;;;5034902;28;20121;-76
2023/03/12 05:27:15;;;;;;;6.57;3.92;;;0.90;99.90;;;;;;5019799;28;20081;-77
2023/03/12 05:29:40;;;;;;;7.05;4.35;;;0.90;99.90;;;;;;5054609;28;20508;-76
2023/03/12 05:32:07;;;;;;;6.22;3.80;;;0.90;99.90;;;;;;5033608;28;20585;-76
2023/03/12 05:34:32;;;;;;;4.80;3.55;;;0.90;99.90;;;;;;5068324;28;20110;-77
2023/03/12 05:36:59;;;;;;;6.07;3.83;;;0.90;99.90;;;;;;5056187;28;20052;-77
2023/03/12 05:39:25;;;;;;;6.88;3.92;;;1.00;99.90;;;;;;5036562;28;20045;-77
2023/03/12 05:41:55;;;;;;;4.60;3.42;;;0.90;99.90;;;;;;5046790;28;20477;-76
2023/03/12 05:44:22;;;;;;;5.70;3.92;;;1.00;99.90;;;;;;5072886;28;20404;-77
2023/03/12 05:46:48;;;;;;;6.43;3.75;;;1.00;99.90;;;;;;5032388;28;20052;-77
2023/03/12 05:49:14;;;;;;;4.50;3.38;;;2.00;99.90;;;;;;5073898;28;20068;-76
2023/03/12 05:51:40;;;;;;;6.20;4.35;;;1.10;99.90;;;;;;5056281;28;20428;-76
2023/03/12 05:54:06;;;;;;;4.22;3.75;;;0.90;99.90;;;;;;5054106;28;20060;-76
2023/03/12 05:56:32;;;;;;;5.95;3.75;;;1.00;99.90;;;;;;5068278;28;20523;-78
2023/03/12 05:58:58;;;;;;;8.85;4.70;;;1.00;99.90;;;;;;5030230;28;20049;-76
2023/03/12 06:01:26;;;;;;;8.38;4.10;;;1.00;99.90;;;;;;5047581;28;20067;-76
2023/03/12 06:03:52;;;;;;;6.95;3.55;;;1.00;99.90;;;;;;5048742;28;20045;-76
2023/03/12 06:06:18;;;;;;;4.68;3.55;;;1.00;99.90;;;;;;5046777;28;20079;-77
2023/03/12 06:08:44;;;;;;;6.15;3.63;;;1.10;99.90;;;;;;5053111;28;20041;-76
2023/03/12 06:11:10;;;;;;;6.32;3.63;;;1.90;99.90;;;;;;5035475;28;20043;-76
2023/03/12 06:13:36;;;;;;;4.95;3.55;;;1.60;99.90;;;;;;5035458;28;20067;-77
2023/03/12 06:16:03;;;;;;;6.15;4.25;;;1.20;99.90;;;;;;5035083;28;20041;-78
2023/03/12 06:18:30;;;;;;;5.55;3.97;;;1.10;99.90;;;;;;5035670;28;20053;-78
2023/03/12 06:21:16;;;;;;;7.90;4.30;;;1.20;99.90;;;;;;5053312;28;20135;-79
2023/03/12 06:23:43;;;;;;;7.10;4.57;;;1.50;99.90;;;;;;5053280;28;20076;-76
2023/03/12 06:26:10;;;;;;;5.97;3.90;;;1.20;99.90;;;;;;5039197;28;20064;-76
2023/03/12 06:28:36;;;;;;;4.78;3.80;;;1.40;99.90;;;;;;5059301;28;20083;-76
2023/03/12 06:31:03;;;;;;;5.80;3.97;;;1.20;99.90;;;;;;5054131;28;20094;-76
2023/03/12 06:33:29;;;;;;;4.85;4.35;;;1.30;99.90;;;;;;5062321;28;20110;-76
2023/03/12 06:35:56;;;;;;;5.78;4.70;;;1.60;99.90;;;;;;5034806;28;20489;-76
2023/03/12 06:38:22;;;;;;;5.38;4.22;;;1.30;99.90;;;;;;5045771;28;20152;-81
2023/03/12 06:40:58;;;;;;;6.57;5.03;;;1.60;99.90;;;;;;5064859;28;20057;-76
2023/03/12 06:43:25;;;;;;;;;;;1.30;99.90;;;;;;5053272;28;20103;-76
2023/03/12 06:45:52;;;;;;;4.25;3.60;;;1.30;99.90;;;;;;5066771;28;19927;-76
2023/03/12 06:48:18;;;;;;;5.65;4.43;;;1.70;99.90;;;;;;5056791;28;20098;-77
2023/03/12 06:50:44;;;;;;;5.28;4.18;;;1.40;99.90;;;;;;5037751;28;20497;-78
2023/03/12 06:53:09;;;;;;;6.85;4.13;;;1.30;99.90;;;;;;5035048;28;20290;-77
2023/03/12 06:55:35;;;;;;;5.60;4.30;;;1.40;99.90;;;;;;5018526;28;20065;-77
2023/03/12 06:58:02;;;;;;;6.03;4.70;;;1.40;99.90;;;;;;5060416;28;20507;-78
2023/03/12 07:00:29;;;;;;;7.38;4.10;;;1.90;99.90;;;;;;5069182;28;20086;-77
2023/03/12 07:02:55;;;;;;;8.13;4.45;;;1.60;99.90;;;;;;5054116;28;20106;-77
2023/03/12 07:05:22;;;;;;;6.35;4.72;;;1.40;99.90;;;;;;5054715;28;20491;-79
2023/03/12 07:07:48;;;;;;;6.05;3.75;;;2.20;99.90;;;;;;5038208;28;20078;-77
2023/03/12 07:10:13;;;;;;;6.40;4.57;;;1.30;99.90;;;;;;5054131;28;20509;-77
2023/03/12 07:12:39;;;;;;;7.30;4.55;;;1.30;99.90;;;;;;5023127;28;20075;-77
2023/03/12 07:15:05;;;;;;;6.03;4.10;;;1.60;99.90;;;;;;5048424;28;20489;-77
2023/03/12 07:17:31;;;;;;;5.10;3.97;;;1.30;99.90;;;;;;5054767;28;20124;-78
2023/03/12 07:19:57;;;;;;;5.13;3.92;;;1.40;99.90;;;;;;5072096;28;20198;-77
2023/03/12 07:22:23;;;;;;;6.57;4.53;;;1.80;99.90;;;;;;5042523;28;20045;-78
2023/03/12 07:24:50;;;;;;;5.60;4.47;;;1.70;99.90;;;;;;5046783;28;20041;-79
2023/03/12 07:27:16;;;;;;;7.45;4.15;;;1.30;99.90;;;;;;5041495;28;20049;-79
2023/03/12 07:29:43;;;;;;;6.97;4.68;;;1.60;99.90;;;;;;5034158;28;20150;-78
2023/03/12 07:32:08;;;;;;;8.25;4.57;;;1.30;99.90;;;;;;5034098;28;20056;-81
2023/03/12 07:34:34;;;;;;;6.57;4.43;;;1.30;99.90;;;;;;5051708;28;20049;-76
2023/03/12 07:37:00;;;;;;;5.35;4.32;;;1.30;99.90;;;;;;5067385;28;20045;-77
2023/03/12 07:39:26;;;;;;;6.32;4.40;;;1.70;99.90;;;;;;5053658;28;20052;-78
2023/03/12 07:41:52;;;;;;;6.35;4.57;;;1.30;99.90;;;;;;5052866;28;20137;-78
2023/03/12 07:44:17;;;;;;;6.28;4.65;;;1.30;99.90;;;;;;5027052;28;20061;-78
2023/03/12 07:46:43;;;;;;;5.88;4.38;;;1.30;99.90;;;;;;5063511;28;20040;-77
2023/03/12 07:49:09;;;;;;;5.28;4.57;;;1.30;99.90;;;;;;5049894;28;20053;-78
2023/03/12 07:51:34;;;;;;;7.72;5.30;;;1.30;99.90;;;;;;5065998;28;20040;-80
2023/03/12 07:54:00;;;;;;;6.70;4.82;;;1.30;99.90;;;;;;5056203;28;20144;-78
2023/03/12 07:56:26;;;;;;;8.00;5.22;;;1.30;99.90;;;;;;5054877;28;20067;-78
2023/03/12 07:58:52;;;;;;;8.77;5.10;;;1.30;99.90;;;;;;5048298;28;20138;-77
2023/03/12 08:01:18;;;;;;;9.00;5.30;;;1.30;99.90;;;;;;5063237;28;20103;-78
2023/03/12 08:03:44;;;;;;;9.18;6.28;;;1.70;99.90;;;;;;5053678;28;20036;-78
2023/03/12 08:06:10;;;;;;;6.88;4.68;;;1.30;99.90;;;;;;5065243;28;20076;-78
2023/03/12 08:08:39;;;;;;;6.38;4.75;;;1.30;99.90;;;;;;5058366;28;20521;-78
2023/03/12 08:11:06;;;;;;;6.15;4.90;;;1.30;99.90;;;;;;5052321;28;20489;-77
2023/03/12 08:13:31;;;;;;;6.90;5.10;;;1.30;99.90;;;;;;5052598;28;20037;-77
2023/03/12 08:15:57;;;;;;;7.22;5.50;;;1.30;99.90;;;;;;5044863;28;20129;-79
2023/03/12 08:18:23;;;;;;;7.05;5.30;;;1.30;99.90;;;;;;5071198;28;20521;-78
2023/03/12 08:20:53;;;;;;;8.27;5.28;;;1.30;99.90;;;;;;5053092;28;20036;-77
2023/03/12 08:23:20;;;;;;;6.22;5.28;;;1.30;99.90;;;;;;5071002;28;20052;-78
2023/03/12 08:25:47;;;;;;;7.15;5.20;;;1.30;99.90;;;;;;5028690;28;20045;-80
2023/03/12 08:28:14;;;;;;;6.50;4.88;;;1.30;99.90;;;;;;5050907;28;20041;-78
2023/03/12 08:30:48;;;;;;;7.05;5.15;;;1.30;99.90;;;;;;5014439;28;20056;-78
2023/03/12 08:33:14;;;;;;;8.73;5.40;;;1.30;99.90;;;;;;5046638;28;20044;-79
2023/03/12 08:35:40;;;;;;;6.45;4.90;;;1.30;99.90;;;;;;5033182;28;20116;-80
2023/03/12 08:38:06;;;;;;;7.03;4.68;;;1.30;99.90;;;;;;5033007;28;20041;-77
2023/03/12 08:40:31;;;;;;;5.82;5.18;;;1.30;99.90;;;;;;5022991;28;20056;-77
2023/03/12 08:42:57;;;;;;;6.07;4.93;;;1.70;99.90;;;;;;5049310;28;20092;-81
2023/03/12 08:45:23;;;;;;;6.95;5.55;;;1.40;99.90;;;;;;5029963;28;20084;-79
2023/03/12 08:47:49;;;;;;;6.00;4.63;;;1.40;99.90;;;;;;5049576;28;20370;-80
2023/03/12 08:50:15;;;;;;;7.93;5.50;;;1.50;99.90;;;;;;5050446;28;20107;-80
2023/03/12 08:52:42;;;;;;;8.52;4.82;;;1.70;99.90;;;;;;5031078;28;20701;-82
2023/03/12 08:55:10;;;;;;;7.13;4.55;;;1.40;99.90;;;;;;5050132;28;20045;-80
2023/03/12 08:57:37;;;;;;;7.70;5.38;;;1.70;99.90;;;;;;5032456;28;20116;-79
2023/03/12 09:00:10;;;;;;;6.22;4.82;;;1.40;99.90;;;;;;5036536;28;20127;-78
2023/03/12 09:02:36;;;;;;;6.47;4.85;;;1.40;99.90;;;;;;5035871;28;20205;-80
2023/03/12 09:05:03;;;;;;;7.03;4.57;;;1.50;99.90;;;;;;5050121;28;20390;-79
2023/03/12 09:07:31;;;;;;;5.88;4.75;;;1.50;99.90;;;;;;5032433;28;20094;-79
2023/03/12 09:09:56;;;;;;;6.85;4.90;;;1.50;99.90;;;;;;5053243;28;20057;-79
2023/03/12 09:12:23;;;;;;;5.85;4.22;;;1.50;99.90;;;;;;5053698;28;20045;-78
2023/03/12 09:14:50;;;;;;;8.73;5.50;;;1.50;99.90;;;;;;5037431;28;20057;-79
2023/03/12 09:17:16;;;;;;;7.03;5.03;;;1.50;99.90;;;;;;5036097;28;20262;-81
2023/03/12 09:19:41;;;;;;;6.10;4.55;;;2.20;99.90;;;;;;5053587;28;20406;-80
2023/03/12 09:22:07;;;;;;;7.78;4.85;;;1.50;99.90;;;;;;5019824;28;20049;-78
2023/03/12 09:24:33;;;;;;;7.35;4.85;;;1.40;99.90;;;;;;5053375;28;20502;-77
2023/03/12 09:26:59;;;;;;;6.13;4.85;;;1.40;99.90;;;;;;5019012;28;20481;-82
2023/03/12 09:29:24;;;;;;;9.20;5.57;;;2.00;99.90;;;;;;5035579;28;20083;-78
2023/03/12 09:31:50;;;;;;;5.95;5.10;;;1.80;99.90;;;;;;5035478;28;20095;-78
2023/03/12 09:34:16;;;;;;;10.35;6.93;;;1.40;99.90;;;;;;5053808;28;20055;-77
2023/03/12 09:36:42;;;;;;;7.78;6.53;;;1.40;99.90;;;;;;5019861;28;20045;-79
2023/03/12 09:39:08;;;;;;;8.35;7.22;;;1.80;99.90;;;;;;5053337;28;20048;-78
2023/03/12 09:41:38;;;;;;;10.32;6.65;;;1.40;99.90;;;;;;5052897;28;20107;-79
2023/03/12 09:44:30;;;;;;;10.85;7.55;;;1.50;99.90;;;;;;5053960;28;20056;-80
2023/03/12 09:47:16;;;;;;;10.35;7.22;;;1.50;99.90;;;;;;5028626;28;20382;-79
2023/03/12 09:49:50;;;;;;;7.88;6.85;;;1.50;99.90;;;;;;5036101;28;20130;-80
2023/03/12 09:52:32;;;;;;;10.55;6.95;;;2.00;99.90;;;;;;5036315;28;20052;-79
2023/03/12 09:55:02;;;;;;;7.97;6.03;;;1.60;99.90;;;;;;5052993;28;20080;-79
2023/03/12 09:57:31;;;;;;;8.75;6.38;;;1.60;99.90;;;;;;5051446;28;20049;-78
2023/03/12 09:59:57;;;;;;;10.70;6.57;;;1.60;99.90;;;;;;5053448;28;20271;-78
2023/03/12 10:03:14;;;;;;;9.82;6.63;;;1.60;99.90;;;;;;5034493;28;20129;-79
2023/03/12 10:06:07;;;;;;;8.77;6.65;;;1.50;99.90;;;;;;5031532;28;20089;-79
2023/03/12 10:08:51;;;;;;;9.98;7.22;;;1.50;99.90;;;;;;5052578;28;20559;-79
2023/03/12 10:11:46;;;;;;;8.68;7.03;;;1.50;99.90;;;;;;5050854;28;20053;-78
2023/03/12 10:14:31;;;;;;;7.13;6.43;;;1.50;99.90;;;;;;5052890;28;20049;-78
2023/03/12 10:16:57;;;;;;;9.75;7.38;;;1.50;99.90;;;;;;5052701;28;20041;-80
2023/03/12 10:19:31;;;;;;;7.72;6.68;;;2.30;99.90;;;;;;5052003;28;20049;-80
2023/03/12 10:22:26;;;;;;;9.27;6.65;;;1.50;99.90;;;;;;5051951;28;20045;-79
2023/03/12 10:25:18;;;;;;;8.98;6.57;;;1.50;99.90;;;;;;5035075;28;20044;-78
2023/03/12 10:27:44;;;;;;;10.02;6.70;;;1.50;99.90;;;;;;5052732;28;20553;-80
2023/03/12 10:30:20;;;;;;;9.23;7.03;;;1.50;99.90;;;;;;5051653;28;20132;-80
2023/03/12 10:32:54;;;;;;;9.52;6.53;;;1.50;99.90;;;;;;5052231;28;20099;-79
2023/03/12 10:35:25;;;;;;;9.45;6.80;;;1.50;99.90;;;;;;5042495;28;20453;-78
2023/03/12 10:38:01;;;;;;;8.68;7.03;;;1.60;99.90;;;;;;5039091;28;20040;-78
2023/03/12 10:40:30;;;;;;;8.77;7.17;;;1.50;99.90;;;;;;5034367;28;20049;-78
2023/03/12 10:42:56;;;;;;;10.00;7.40;;;1.60;99.90;;;;;;5034228;28;20779;-78
2023/03/12 10:45:31;;;;;;;10.77;7.38;;;2.10;99.90;;;;;;5034490;28;20055;-79
2023/03/12 10:48:24;;;;;;;10.60;8.00;;;1.60;99.90;;;;;;5034817;28;20440;-79
2023/03/12 10:51:07;;;;;;;9.50;7.57;;;1.70;99.90;;;;;;5049771;28;20481;-75
2023/03/12 10:53:43;;;;;;;9.90;7.07;;;1.70;99.90;;;;;;5048749;28;20052;-75
2023/03/12 10:56:12;;;;;;;9.20;7.95;;;1.80;99.90;;;;;;5035475;28;20500;-78
2023/03/12 10:58:49;;;;;;;11.57;7.70;;;1.80;99.90;;;;;;5035982;28;20103;-76
2023/03/12 11:01:27;;;;;;;10.13;7.53;;;1.90;99.90;;;;;;5052566;28;20543;-76
2023/03/12 11:04:13;;;;;;;9.15;7.35;;;1.90;99.90;;;;;;5035317;28;20124;-76
2023/03/12 11:06:38;;;;;;;10.57;7.40;;;2.20;99.90;;;;;;5052605;28;20124;-78
2023/03/12 11:09:18;;;;;;;9.82;7.38;;;2.10;99.90;;;;;;5052177;28;20478;-78
2023/03/12 11:11:46;;;;;;;10.65;7.68;;;2.20;99.90;;;;;;5051812;28;20055;-79
2023/03/12 11:14:17;;;;;;;9.45;7.43;;;2.10;99.90;;;;;;5034600;28;20044;-79
2023/03/12 11:16:43;;;;;;;11.68;7.95;;;2.10;99.90;;;;;;5033428;28;20051;-79
2023/03/12 11:19:12;;;;;;;11.82;8.30;;;2.10;99.90;;;;;;5052224;28;20044;-76
2023/03/12 11:21:39;;;;;;;9.40;7.65;;;2.20;99.90;;;;;;5051938;28;20448;-78
2023/03/12 11:24:14;;;;;;;12.05;8.55;;;2.20;99.90;;;;;;5051848;28;20441;-77
2023/03/12 11:26:57;;;;;;;11.85;9.07;;;2.20;99.90;;;;;;5034100;28;20448;-78
2023/03/12 11:29:42;;;;;;;10.30;7.90;;;2.30;99.90;;;;;;5051987;28;20059;-78
2023/03/12 11:32:10;;;;;;;10.88;8.27;;;2.30;99.90;;;;;;5050440;28;20518;-79
2023/03/12 11:34:38;;;;;;;11.70;8.77;;;2.70;99.90;;;;;;5034198;28;20052;-77
2023/03/12 11:37:11;;;;;;;12.65;9.00;;;2.50;99.90;;;;;;5051335;28;20474;-79
2023/03/12 11:39:50;;;;;;;10.88;8.07;;;2.50;99.90;;;;;;5033698;28;20147;-82
2023/03/12 11:42:30;;;;;;;13.05;8.75;;;2.70;99.90;;;;;;5051273;28;20075;-78
2023/03/12 11:45:19;;;;;;;12.65;9.55;;;2.70;99.90;;;;;;5017519;28;20480;-77
2023/03/12 11:48:14;;;;;;;12.77;9.00;;;2.70;99.90;;;;;;5051187;28;20097;-76
2023/03/12 11:50:54;;;;;;;11.57;7.88;;;2.70;99.90;;;;;;5034274;28;20063;-77
2023/03/12 11:53:48;;;;;;;14.73;9.63;;;2.70;99.90;;;;;;5034569;28;20052;-77
2023/03/12 11:56:35;;;;;;;13.30;8.57;;;2.80;99.90;;;;;;5032415;28;20076;-81
2023/03/12 11:59:11;;;;;;;;;;;3.00;99.90;;;;;;5052569;28;20128;-78
2023/03/12 12:01:59;;;;;;;13.45;9.02;;;3.00;99.90;;;;;;5015630;28;20040;-78
2023/03/12 12:04:54;;;;;;;11.40;8.00;;;3.00;99.90;;;;;;5033375;28;20055;-79
2023/03/12 12:07:38;;;;;;;13.25;9.30;;;3.20;99.90;;;;;;5033348;28;20076;-81
2023/03/12 12:10:26;;;;;;;14.30;9.20;;;3.30;99.90;;;;;;5050185;28;20053;-77
2023/03/12 12:13:00;;;;;;;12.07;8.35;;;3.40;99.90;;;;;;5052215;28;20178;-78
2023/03/12 12:15:44;;;;;;;11.50;7.82;;;3.40;99.90;;;;;;5034506;28;20049;-81
2023/03/12 12:18:46;;;;;;;11.82;7.85;;;3.50;99.90;;;;;;5050600;28;20041;-75
2023/03/12 12:21:15;;;;;;;12.27;9.18;;;3.60;99.90;;;;;;5033392;28;20182;-77
2023/03/12 12:24:17;;;;;;;9.85;7.88;;;3.60;99.90;;;;;;5049476;28;20052;-77
2023/03/12 12:26:55;;;;;;;11.60;8.98;;;3.70;99.90;;;;;;5033026;28;20052;-77
2023/03/12 12:29:42;;;;;;;13.23;9.10;;;3.80;99.90;;;;;;5049721;28;20099;-76
2023/03/12 12:32:16;;;;;;;13.68;10.10;;;3.80;99.90;;;;;;5049557;28;20051;-77
2023/03/12 12:34:52;;;;;;;14.40;9.07;;;4.20;99.90;;;;;;5026546;28;20517;-77
2023/03/12 12:37:23;;;;;;;13.98;8.10;;;4.00;99.90;;;;;;5047857;28;20091;-78
2023/03/12 12:40:17;;;;;;;14.45;9.32;;;4.20;99.90;;;;;;5050897;28;20053;-80
2023/03/12 12:43:14;;;;;;;14.40;9.30;;;4.30;99.90;;;;;;5049517;28;20136;-78
2023/03/12 12:45:42;;;;;;;16.77;10.25;;;4.40;99.90;;;;;;5049687;28;20581;-77
2023/03/12 12:48:16;;;;;;;14.80;9.18;;;4.50;99.90;;;;;;5031857;28;20481;-77
2023/03/12 12:50:46;;;;;;;13.05;8.70;;;4.60;99.90;;;;;;5032940;28;20055;-78
2023/03/12 12:53:24;;;;;;;15.55;10.13;;;4.60;99.90;;;;;;5032967;28;20049;-79
2023/03/12 12:56:10;;;;;;;16.83;9.85;;;4.80;99.90;;;;;;5033237;28;20048;-78
2023/03/12 12:58:52;;;;;;;15.90;9.15;;;4.90;99.90;;;;;;5016386;28;20061;-79
2023/03/12 13:01:19;;;;;;;13.88;9.40;;;4.90;99.90;;;;;;5032950;28;20494;-80
2023/03/12 13:03:46;;;;;;;17.45;9.38;;;5.00;99.90;;;;;;5050788;28;20139;-77
2023/03/12 13:06:12;;;;;;;17.67;11.48;;;5.10;99.90;;;;;;5050157;28;20057;-77
2023/03/12 13:08:43;;;;;;;15.57;10.77;;;5.10;99.90;;;;;;5050520;28;20072;-77